createdAt,value
2019-04-16T00:04:41.893Z,-1.21
2019-04-16T00:14:48.687Z,-1.37
2019-04-16T00:24:57.359Z,-1.15
2019-04-16T00:35:03.780Z,-1.28
2019-04-16T00:45:10.388Z,-1.66
2019-04-16T00:55:16.773Z,-1.49
2019-04-16T01:05:23.194Z,-1.49
2019-04-16T01:15:32.838Z,-1.72
2019-04-16T01:25:40.742Z,-1.74
2019-04-16T01:36:02.698Z,-1.75
2019-04-16T01:46:09.757Z,-2.06
2019-04-16T01:56:15.909Z,-2.06
2019-04-16T02:06:25.619Z,-1.93
2019-04-16T02:16:31.412Z,-2.12
2019-04-16T02:26:37.353Z,-2.38
2019-04-16T02:36:43.456Z,-2.35
2019-04-16T02:46:49.506Z,-2.54
2019-04-16T02:57:01.316Z,-2.37
2019-04-16T03:07:07.399Z,-2.34
2019-04-16T03:17:28.419Z,-2.62
2019-04-16T03:27:35.600Z,-2.76
2019-04-16T03:37:41.908Z,-2.99
2019-04-16T03:47:50.936Z,-2.82
2019-04-16T03:57:55.772Z,-2.74
2019-04-16T04:08:02.774Z,-2.90
2019-04-16T04:18:11.679Z,-2.73
2019-04-16T04:28:19.760Z,-2.73
2019-04-16T04:38:25.368Z,-2.00
2019-04-16T04:48:31.740Z,-1.03
2019-04-16T04:58:38.304Z,0.58
2019-04-16T05:08:45.493Z,1.60
2019-04-16T05:18:51.817Z,3.61
2019-04-16T05:28:59.448Z,5.30
2019-04-16T05:39:08.083Z,6.45
2019-04-16T05:49:15.480Z,6.95
2019-04-16T05:59:21.410Z,7.25
2019-04-16T06:09:27.726Z,7.38
2019-04-16T06:19:46.412Z,7.26
2019-04-16T06:30:01.438Z,7.13
2019-04-16T06:40:32.601Z,7.10
2019-04-16T07:02:00.338Z,7.49
2019-04-16T07:12:11.795Z,7.80
2019-04-16T07:22:22.928Z,8.12
2019-04-16T07:32:52.149Z,8.45
2019-04-16T07:43:00.697Z,8.68
2019-04-16T07:53:24.582Z,8.75
2019-04-16T08:03:39.276Z,8.99
2019-04-16T08:13:52.654Z,9.11
2019-04-16T08:24:05.488Z,9.21
2019-04-16T08:34:13.845Z,9.52
2019-04-16T08:44:22.238Z,10.01
2019-04-16T08:54:30.308Z,10.03
2019-04-16T09:04:47.764Z,9.95
2019-04-16T09:15:02.312Z,10.44
2019-04-16T09:25:17.122Z,10.85
2019-04-16T09:35:25.300Z,10.71
2019-04-16T09:45:33.872Z,11.10
2019-04-16T09:55:39.002Z,10.89
2019-04-16T10:05:45.155Z,11.30
2019-04-16T10:15:51.096Z,11.40
2019-04-16T10:25:57.558Z,11.61
2019-04-16T10:36:05.911Z,11.63
2019-04-16T10:46:14.208Z,11.83
2019-04-16T10:56:37.944Z,12.22
2019-04-16T11:07:03.167Z,12.32
2019-04-16T11:17:17.659Z,12.20
2019-04-16T11:37:59.303Z,12.56
2019-04-16T11:48:11.233Z,12.86
2019-04-16T11:58:35.919Z,13.29
2019-04-16T12:08:51.512Z,13.39
2019-04-16T12:19:15.977Z,13.36
2019-04-16T12:29:24.883Z,13.40
2019-04-16T12:39:38.861Z,13.58
2019-04-16T12:49:58.249Z,13.65
2019-04-16T13:00:16.744Z,14.05
2019-04-16T13:10:25.894Z,13.82
2019-04-16T13:20:48.718Z,13.61
2019-04-16T13:30:55.878Z,13.73
2019-04-16T13:41:02.669Z,13.64
2019-04-16T13:51:18.517Z,13.88
2019-04-16T14:01:21.206Z,13.92
2019-04-16T14:11:30.832Z,13.76
2019-04-16T14:21:36.887Z,13.72
2019-04-16T14:31:46.210Z,13.62
2019-04-16T14:41:52.194Z,14.10
2019-04-16T14:52:02.030Z,13.48
2019-04-16T15:02:07.867Z,13.71
2019-04-16T15:12:13.689Z,13.50
2019-04-16T15:22:24.039Z,13.26
2019-04-16T15:32:41.785Z,13.43
2019-04-16T15:42:50.521Z,13.14
2019-04-16T15:52:58.234Z,13.31
2019-04-16T16:03:03.824Z,13.20
2019-04-16T16:13:10.195Z,13.17
2019-04-16T16:23:16.175Z,13.39
2019-04-16T16:33:22.065Z,12.94
2019-04-16T16:43:29.248Z,13.07
2019-04-16T16:53:52.848Z,12.91
2019-04-16T17:04:00.774Z,12.85
2019-04-16T17:14:07.410Z,12.54
2019-04-16T17:24:15.406Z,12.17
2019-04-16T17:34:24.577Z,11.87
2019-04-16T17:44:38.422Z,11.62
2019-04-16T17:54:54.526Z,11.39
2019-04-16T18:05:23.262Z,10.95
2019-04-16T18:15:42.475Z,10.58
2019-04-16T18:25:56.818Z,10.07
2019-04-16T18:36:14.237Z,9.78
2019-04-16T18:46:26.996Z,8.97
2019-04-16T18:56:33.005Z,8.41
2019-04-16T19:06:39.397Z,7.97
2019-04-16T19:16:46.651Z,7.65
2019-04-16T19:26:54.394Z,7.08
2019-04-16T19:37:02.108Z,6.76
2019-04-16T19:47:08.297Z,6.57
2019-04-16T19:57:15.229Z,6.47
2019-04-16T20:07:26.015Z,6.30
2019-04-16T20:17:32.557Z,6.23
2019-04-16T20:27:40.757Z,6.17
2019-04-16T20:37:50.405Z,6.03
2019-04-16T20:47:56.792Z,6.05
2019-04-16T20:58:04.508Z,5.97
2019-04-16T21:08:10.519Z,5.79
2019-04-16T21:18:16.562Z,5.85
2019-04-16T21:28:42.624Z,5.99
2019-04-16T21:38:50.064Z,5.79
2019-04-16T21:49:00.881Z,5.70
2019-04-16T21:59:08.829Z,5.56
2019-04-16T22:09:17.323Z,5.32
2019-04-16T22:19:24.293Z,5.19
2019-04-16T22:29:30.192Z,5.03
2019-04-16T22:39:50.898Z,4.87
2019-04-16T22:50:17.283Z,4.95
2019-04-16T23:01:08.506Z,4.93
2019-04-16T23:10:58.686Z,4.98
2019-04-16T23:21:09.531Z,5.22
2019-04-16T23:31:13.192Z,5.19
2019-04-16T23:41:19.941Z,5.39
2019-04-16T23:51:30.733Z,5.72
